Time;durP1;ratioP1;P1;durP2;ratioP2;P2;SDS_P1;SDS_P2;PMS_P1;PMS_P2;Temp;Humidity;BMP_temperature;BMP_pressure;BME280_temperature;BME280_humidity;BME280_pressure;Samples;Min_cycle;Max_cycle;Signal;HPM_P1;HPM_P2
2022/05/24 00:00:47;;;;;;;4.92;2.27;;;27.50;98.60;;;;;;1842904;77;21126;-77
2022/05/24 00:03:19;;;;;;;5.62;2.40;;;27.50;98.40;;;;;;1837084;77;21088;-76
2022/05/24 00:05:51;;;;;;;10.13;2.33;;;27.60;98.40;;;;;;1855427;77;21536;-76
2022/05/24 00:08:22;;;;;;;8.05;2.30;;;27.60;98.20;;;;;;1818833;78;21197;-77
2022/05/24 00:10:54;;;;;;;5.47;2.40;;;27.70;98.10;;;;;;1847649;76;21120;-77
2022/05/24 00:13:26;;;;;;;6.58;2.67;;;27.70;98.00;;;;;;1879615;76;21674;-77
2022/05/24 00:15:59;;;;;;;6.12;2.17;;;27.70;97.80;;;;;;1819551;77;21179;-77
2022/05/24 00:18:31;;;;;;;6.03;2.60;;;27.70;97.70;;;;;;1812480;78;21665;-77
2022/05/24 00:21:04;;;;;;;3.87;1.80;;;27.90;97.70;;;;;;1862769;75;21138;-78
2022/05/24 00:23:36;;;;;;;6.83;2.35;;;27.90;97.80;;;;;;1868763;75;21193;-78
2022/05/24 00:26:09;;;;;;;6.42;2.10;;;27.80;97.50;;;;;;1851986;76;21649;-77
2022/05/24 00:28:40;;;;;;;6.20;2.25;;;27.80;97.50;;;;;;1850352;76;21697;-77
2022/05/24 00:31:11;;;;;;;5.42;1.70;;;28.00;97.50;;;;;;1844344;77;21600;-77
2022/05/24 00:33:42;;;;;;;6.12;2.12;;;28.00;97.30;;;;;;1872875;76;21611;-76
2022/05/24 00:36:13;;;;;;;10.25;2.80;;;27.90;97.20;;;;;;1833350;77;21186;-76
2022/05/24 00:38:44;;;;;;;7.83;2.60;;;28.00;97.10;;;;;;1846983;76;21135;-78
2022/05/24 00:41:22;;;;;;;6.17;2.50;;;28.10;97.10;;;;;;1852785;76;21150;-78
2022/05/24 00:43:52;;;;;;;7.50;2.45;;;28.10;97.00;;;;;;1874355;76;21602;-77
2022/05/24 00:46:26;;;;;;;6.42;2.05;;;28.10;97.20;;;;;;1842496;76;21124;-78
2022/05/24 00:48:56;;;;;;;4.67;2.05;;;28.10;96.70;;;;;;1859615;76;21146;-78
2022/05/24 00:51:29;;;;;;;7.15;2.00;;;28.30;96.80;;;;;;1857915;76;21590;-77
2022/05/24 00:54:00;;;;;;;5.15;2.52;;;28.30;96.60;;;;;;1864767;75;21707;-77
2022/05/24 00:56:35;;;;;;;5.17;1.90;;;28.40;96.60;;;;;;1852790;76;22254;-75
2022/05/24 00:59:09;;;;;;;6.15;2.25;;;28.30;96.70;;;;;;1860802;76;21519;-76
2022/05/24 01:01:44;;;;;;;9.03;1.95;;;28.50;96.70;;;;;;1855236;76;21136;-76
2022/05/24 01:04:19;;;;;;;6.12;2.87;;;28.40;96.30;;;;;;1853700;76;21625;-78
2022/05/24 01:06:51;;;;;;;5.10;1.72;;;28.50;96.10;;;;;;1824700;77;21633;-77
2022/05/24 01:09:24;;;;;;;3.42;1.92;;;28.70;96.00;;;;;;1857266;76;21174;-77
2022/05/24 01:11:58;;;;;;;6.28;2.10;;;28.60;96.10;;;;;;1837951;75;21696;-78
2022/05/24 01:14:30;;;;;;;9.10;2.83;;;28.70;96.20;;;;;;1789045;78;21768;-79
2022/05/24 01:17:02;;;;;;;10.53;2.75;;;29.00;96.30;;;;;;1844342;77;21123;-78
2022/05/24 01:19:34;;;;;;;5.83;2.47;;;28.90;95.90;;;;;;1820991;77;21146;-78
2022/05/24 01:22:07;;;;;;;7.05;2.22;;;29.10;95.40;;;;;;1829857;77;21158;-77
2022/05/24 01:24:40;;;;;;;6.50;2.37;;;29.20;95.70;;;;;;1807389;79;21119;-77
2022/05/24 01:27:12;;;;;;;8.98;2.40;;;29.20;95.30;;;;;;1768380;80;21214;-77
2022/05/24 01:29:43;;;;;;;5.62;2.35;;;29.10;95.50;;;;;;1835067;77;21119;-77
2022/05/24 01:37:20;;;;;;;5.83;2.20;;;29.40;95.30;;;;;;1787872;79;21587;-75
2022/05/24 01:39:54;;;;;;;9.35;2.75;;;29.40;95.60;;;;;;1850855;76;21185;-75
2022/05/24 01:42:26;;;;;;;7.78;2.17;;;29.60;94.90;;;;;;1821862;77;21589;-77
2022/05/24 01:44:57;;;;;;;6.87;2.33;;;29.80;94.20;;;;;;1830850;77;21096;-76
2022/05/24 01:47:29;;;;;;;3.10;1.67;;;29.80;94.50;;;;;;1837091;77;21260;-76
2022/05/24 01:50:02;;;;;;;5.65;2.40;;;29.90;93.50;;;;;;1825915;77;21710;-75
2022/05/24 01:52:36;;;;;;;5.95;2.33;;;29.80;93.80;;;;;;1843621;77;21381;-76
2022/05/24 01:55:09;;;;;;;5.90;2.52;;;29.90;93.80;;;;;;1806413;78;22321;-75
2022/05/24 01:57:42;;;;;;;5.03;2.50;;;29.90;93.90;;;;;;1846241;77;21626;-76
2022/05/24 02:00:16;;;;;;;7.15;2.62;;;30.20;93.80;;;;;;1828421;77;21811;-78
2022/05/24 02:02:49;;;;;;;10.85;2.40;;;30.40;93.50;;;;;;1805671;77;21661;-78
2022/05/24 02:05:22;;;;;;;3.87;2.10;;;30.20;93.00;;;;;;1845919;77;21213;-78
2022/05/24 02:07:53;;;;;;;6.85;2.45;;;30.20;93.00;;;;;;1828953;77;21182;-78
2022/05/24 02:10:25;;;;;;;5.17;2.10;;;30.40;93.30;;;;;;1845590;77;21107;-76
2022/05/24 02:13:02;;;;;;;6.92;2.80;;;30.40;93.20;;;;;;1838229;76;21930;-77
2022/05/24 02:15:36;;;;;;;7.90;2.45;;;30.40;93.50;;;;;;1826273;77;21558;-76
2022/05/24 02:18:10;;;;;;;6.60;3.00;;;30.50;93.30;;;;;;1819519;77;21152;-76
2022/05/24 02:20:43;;;;;;;6.50;2.52;;;30.50;93.10;;;;;;1834515;77;21126;-76
2022/05/24 02:23:17;;;;;;;7.80;2.65;;;30.60;93.30;;;;;;1865217;76;21302;-76
2022/05/24 02:25:50;;;;;;;6.85;2.72;;;30.50;93.30;;;;;;1845664;76;21164;-76
2022/05/24 02:28:23;;;;;;;7.10;2.80;;;30.50;93.50;;;;;;1851170;75;21609;-75
2022/05/24 02:30:57;;;;;;;7.50;2.72;;;30.50;93.40;;;;;;1835133;76;21575;-78
2022/05/24 02:33:28;;;;;;;5.12;2.35;;;30.50;92.70;;;;;;1794351;78;21127;-75
2022/05/24 02:36:00;;;;;;;6.03;2.80;;;30.60;93.30;;;;;;1862692;75;21248;-74
2022/05/24 02:38:31;;;;;;;7.87;2.95;;;30.80;92.90;;;;;;1826610;77;21202;-76
2022/05/24 02:43:34;;;;;;;6.08;2.95;;;30.80;92.80;;;;;;1835274;76;21155;-78
2022/05/24 02:46:06;;;;;;;8.78;2.80;;;31.00;92.90;;;;;;1851566;76;21703;-75
2022/05/24 02:48:38;;;;;;;9.00;2.80;;;31.00;92.20;;;;;;1854855;75;21199;-77
2022/05/24 02:51:11;;;;;;;7.28;2.45;;;31.30;92.10;;;;;;1813462;77;21179;-77
2022/05/24 02:53:43;;;;;;;7.60;2.90;;;31.30;91.50;;;;;;1861881;75;21127;-76
2022/05/24 02:56:17;;;;;;;6.35;2.80;;;31.20;91.80;;;;;;1859261;76;21207;-75
2022/05/24 02:58:48;;;;;;;7.08;2.05;;;31.40;91.10;;;;;;1858187;76;21173;-76
2022/05/24 03:01:21;;;;;;;4.65;2.00;;;31.50;90.70;;;;;;1855336;76;21167;-76
2022/05/24 03:03:54;;;;;;;6.45;2.22;;;31.60;90.50;;;;;;1858469;76;21497;-76
2022/05/24 03:06:26;;;;;;;5.65;2.30;;;31.60;90.70;;;;;;1862044;76;21167;-77
2022/05/24 03:14:14;;;;;;;3.67;1.57;;;31.80;90.50;;;;;;1844630;76;21076;-87
2022/05/24 03:16:37;;;;;;;3.50;1.70;;;31.90;90.00;;;;;;1847617;76;21075;-86
2022/05/24 03:19:08;;;;;;;7.67;1.55;;;31.80;90.70;;;;;;1847014;76;21203;-86
2022/05/24 03:21:39;;;;;;;4.20;1.92;;;31.90;90.60;;;;;;1844899;77;21763;-84
2022/05/24 03:24:12;;;;;;;5.03;2.00;;;31.70;91.20;;;;;;1848398;77;21230;-85
2022/05/24 03:26:43;;;;;;;2.87;1.62;;;32.00;90.60;;;;;;1870225;75;21217;-84
2022/05/24 03:29:14;;;;;;;6.65;2.30;;;31.90;89.20;;;;;;1866546;76;21123;-84
2022/05/24 03:31:51;;;;;;;3.47;1.70;;;32.00;90.10;;;;;;1850300;76;21127;-85
2022/05/24 03:34:22;;;;;;;4.47;1.90;;;31.90;89.70;;;;;;1844157;75;21186;-86
2022/05/24 03:36:53;;;;;;;4.78;1.80;;;32.00;90.70;;;;;;1849020;75;21139;-84
2022/05/24 03:39:32;;;;;;;4.50;1.90;;;32.10;90.10;;;;;;1877155;76;21090;-84
2022/05/24 03:42:09;;;;;;;4.17;2.50;;;32.20;89.60;;;;;;1869561;75;21176;-84
2022/05/24 03:44:50;;;;;;;8.88;2.40;;;32.10;90.30;;;;;;1817099;77;21641;-84
2022/05/24 03:47:16;;;;;;;3.47;2.10;;;32.30;90.30;;;;;;1820777;77;21600;-84
2022/05/24 03:49:48;;;;;;;6.30;2.70;;;32.30;89.60;;;;;;1810882;78;21213;-84
2022/05/24 03:52:25;;;;;;;6.65;2.22;;;32.30;88.80;;;;;;1838569;75;21214;-84
2022/05/24 03:54:52;;;;;;;4.87;2.27;;;32.50;89.40;;;;;;1853037;76;21131;-85
2022/05/24 03:59:59;;;;;;;6.35;2.30;;;32.30;88.90;;;;;;1801453;79;21163;-84
2022/05/24 04:02:30;;;;;;;7.47;2.15;;;32.40;87.90;;;;;;1841875;77;21193;-85
2022/05/24 04:05:04;;;;;;;6.40;2.52;;;32.50;88.20;;;;;;1867673;75;21582;-84
2022/05/24 04:07:36;;;;;;;4.35;2.20;;;32.60;87.30;;;;;;1879097;75;21130;-85
2022/05/24 04:10:12;;;;;;;5.92;1.98;;;32.50;87.70;;;;;;1868665;74;21158;-84
2022/05/24 04:12:43;;;;;;;5.70;2.35;;;32.50;86.00;;;;;;1861828;76;21088;-84
2022/05/24 04:15:14;;;;;;;9.75;3.00;;;32.50;87.00;;;;;;1876478;75;21139;-83
2022/05/24 04:17:46;;;;;;;6.83;2.85;;;32.20;88.10;;;;;;1836411;76;21626;-84
2022/05/24 04:20:18;;;;;;;9.25;3.35;;;32.10;88.80;;;;;;1814468;77;21663;-85
2022/05/24 04:22:50;;;;;;;6.35;2.80;;;32.10;89.70;;;;;;1790671;78;21165;-84
2022/05/24 04:25:21;;;;;;;6.33;2.42;;;31.90;90.10;;;;;;1795503;78;21167;-85
2022/05/24 04:27:56;;;;;;;12.25;3.27;;;32.00;90.10;;;;;;1847947;76;21151;-85
2022/05/24 04:30:27;;;;;;;7.75;2.50;;;32.20;89.60;;;;;;1812640;77;21115;-85
2022/05/24 04:32:58;;;;;;;5.50;2.20;;;32.30;88.80;;;;;;1870911;76;21525;-84
2022/05/24 04:35:29;;;;;;;4.97;2.33;;;32.30;88.50;;;;;;1845092;75;21159;-85
2022/05/24 04:38:01;;;;;;;8.53;2.27;;;32.30;87.40;;;;;;1865846;76;21189;-85
2022/05/24 04:43:04;;;;;;;7.83;2.87;;;32.30;88.10;;;;;;1815562;77;21171;-85
2022/05/24 04:45:35;;;;;;;7.70;2.60;;;32.40;87.60;;;;;;1814605;79;21692;-84
2022/05/24 04:48:07;;;;;;;5.30;2.50;;;32.50;88.50;;;;;;1814602;79;21661;-84
2022/05/24 04:50:39;;;;;;;5.75;2.40;;;32.50;87.20;;;;;;1832097;77;21658;-85
2022/05/24 04:53:10;;;;;;;5.00;2.47;;;32.60;88.10;;;;;;1816313;77;21143;-84
2022/05/24 04:55:41;;;;;;;5.97;2.87;;;32.50;86.70;;;;;;1838266;77;21205;-84
2022/05/24 04:58:12;;;;;;;7.08;2.92;;;32.60;87.20;;;;;;1871905;76;21087;-85
2022/05/24 05:00:43;;;;;;;7.05;2.85;;;32.50;87.90;;;;;;1865361;75;21087;-84
2022/05/24 05:03:20;;;;;;;7.10;2.92;;;32.70;87.40;;;;;;1861327;76;21161;-85
2022/05/24 05:05:52;;;;;;;5.30;2.30;;;32.80;86.70;;;;;;1881490;76;21134;-85
2022/05/24 05:08:24;;;;;;;6.45;2.67;;;33.00;86.80;;;;;;1871983;76;21213;-85
2022/05/24 05:10:54;;;;;;;5.47;2.62;;;32.90;86.00;;;;;;1882681;76;21187;-84
2022/05/24 05:13:26;;;;;;;8.10;3.02;;;33.10;86.40;;;;;;1866290;75;21178;-84
2022/05/24 05:15:58;;;;;;;7.35;3.37;;;32.90;87.20;;;;;;1871193;74;21179;-84
2022/05/24 05:18:31;;;;;;;10.10;3.58;;;33.00;86.20;;;;;;1865985;75;21712;-84
2022/05/24 05:21:03;;;;;;;9.58;3.77;;;32.90;86.50;;;;;;1879615;76;21145;-85
2022/05/24 05:23:34;;;;;;;9.68;3.42;;;32.80;86.00;;;;;;1871522;75;21162;-84
2022/05/24 05:26:05;;;;;;;6.87;3.30;;;32.80;87.60;;;;;;1847451;75;21114;-84
2022/05/24 05:28:40;;;;;;;8.88;3.30;;;32.80;87.40;;;;;;1858835;76;21756;-84
2022/05/24 05:31:17;;;;;;;7.37;3.17;;;32.50;87.30;;;;;;1856424;76;21554;-84
2022/05/24 05:33:44;;;;;;;9.13;3.40;;;32.50;88.70;;;;;;1871921;75;21572;-85
2022/05/24 05:36:15;;;;;;;9.50;3.55;;;32.30;88.50;;;;;;1844330;76;21117;-84
2022/05/24 05:38:47;;;;;;;8.93;2.90;;;32.40;89.40;;;;;;1871593;75;21568;-84
2022/05/24 05:41:21;;;;;;;12.50;3.55;;;32.40;88.40;;;;;;1846568;76;21145;-85
2022/05/24 05:43:53;;;;;;;7.97;3.10;;;32.30;90.00;;;;;;1867509;75;21195;-84
2022/05/24 05:46:24;;;;;;;8.48;3.30;;;32.40;88.50;;;;;;1870779;75;21632;-84
2022/05/24 05:48:55;;;;;;;7.67;3.12;;;32.20;88.80;;;;;;1857672;76;21190;-85
2022/05/24 05:51:29;;;;;;;13.10;3.52;;;32.30;89.50;;;;;;1876110;75;21193;-85
2022/05/24 05:54:00;;;;;;;7.50;3.65;;;32.20;89.60;;;;;;1870398;76;21093;-85
2022/05/24 05:56:31;;;;;;;11.70;3.72;;;32.20;89.40;;;;;;1856131;76;21226;-76
2022/05/24 05:59:03;;;;;;;12.23;4.53;;;32.30;88.40;;;;;;1858003;76;21565;-76
2022/05/24 06:01:34;;;;;;;10.90;3.90;;;32.50;89.00;;;;;;1864697;76;21085;-76
2022/05/24 06:04:05;;;;;;;8.00;3.70;;;32.70;88.50;;;;;;1855183;75;21113;-78
2022/05/24 06:06:38;;;;;;;8.55;3.17;;;32.70;88.00;;;;;;1848268;75;21450;-74
2022/05/24 06:09:09;;;;;;;6.90;3.00;;;33.00;87.70;;;;;;1859047;76;21167;-75
2022/05/24 06:11:41;;;;;;;8.85;3.60;;;33.00;84.80;;;;;;1844666;77;21221;-75
2022/05/24 06:14:13;;;;;;;9.85;3.37;;;33.10;85.50;;;;;;1841527;77;21719;-76
2022/05/24 06:16:45;;;;;;;9.53;3.40;;;33.00;85.70;;;;;;1833394;77;21151;-77
2022/05/24 06:19:17;;;;;;;8.88;3.50;;;33.20;86.50;;;;;;1804823;78;21192;-76
2022/05/24 06:21:51;;;;;;;8.15;3.55;;;33.10;86.90;;;;;;1824258;77;21165;-76
2022/05/24 06:24:22;;;;;;;6.22;3.37;;;33.10;86.40;;;;;;1824792;77;21119;-77
2022/05/24 06:26:53;;;;;;;9.80;3.40;;;33.20;83.70;;;;;;1820472;77;21167;-78
2022/05/24 06:29:25;;;;;;;13.05;4.65;;;33.10;83.90;;;;;;1816298;77;21227;-75
2022/05/24 06:31:57;;;;;;;9.90;3.87;;;33.10;84.50;;;;;;1808841;79;21349;-76
2022/05/24 06:34:29;;;;;;;11.90;4.30;;;33.30;86.40;;;;;;1815739;78;21266;-78
2022/05/24 06:37:00;;;;;;;10.30;4.42;;;33.20;84.90;;;;;;1802735;78;21219;-77
2022/05/24 06:39:34;;;;;;;8.23;4.03;;;33.00;84.40;;;;;;1821218;77;21259;-77
2022/05/24 06:42:05;;;;;;;11.20;4.22;;;33.00;84.40;;;;;;1796050;79;21173;-78
2022/05/24 06:44:36;;;;;;;13.48;4.45;;;32.90;86.10;;;;;;1826673;77;21177;-78
2022/05/24 06:47:08;;;;;;;10.53;4.10;;;33.00;87.00;;;;;;1827475;77;21582;-76
2022/05/24 06:49:39;;;;;;;8.25;4.03;;;33.10;87.30;;;;;;1834617;77;21157;-76
2022/05/24 06:52:15;;;;;;;9.28;4.15;;;32.80;87.20;;;;;;1819837;77;21137;-75
2022/05/24 06:54:46;;;;;;;10.50;4.03;;;32.80;87.20;;;;;;1827517;77;21189;-76
2022/05/24 06:57:19;;;;;;;16.70;4.92;;;32.90;85.90;;;;;;1813127;77;21172;-76
2022/05/24 07:02:25;;;;;;;11.70;4.40;;;32.90;87.60;;;;;;1820840;77;21648;-78
2022/05/24 07:04:57;;;;;;;14.33;4.42;;;32.50;89.30;;;;;;1818868;77;21227;-80
2022/05/24 07:07:30;;;;;;;9.28;4.65;;;32.80;88.30;;;;;;1813127;77;21691;-78
2022/05/24 07:10:02;;;;;;;12.35;4.53;;;32.40;88.60;;;;;;1818768;77;21146;-79
2022/05/24 07:12:33;;;;;;;16.32;4.03;;;32.50;88.60;;;;;;1750105;80;21749;-77
2022/05/24 07:15:04;;;;;;;9.40;4.33;;;32.50;88.70;;;;;;1817387;78;21227;-78
2022/05/24 07:17:35;;;;;;;11.70;4.22;;;32.40;89.70;;;;;;1811726;77;21148;-79
2022/05/24 07:20:07;;;;;;;10.93;3.95;;;32.50;86.10;;;;;;1833012;75;21134;-80
2022/05/24 07:22:39;;;;;;;11.48;4.17;;;32.70;85.80;;;;;;1823220;77;21221;-81
2022/05/24 07:25:10;;;;;;;11.12;4.53;;;32.50;86.10;;;;;;1817439;77;21151;-79
2022/05/24 07:27:42;;;;;;;13.20;5.25;;;32.70;86.10;;;;;;1818018;77;21625;-79
2022/05/24 07:30:13;;;;;;;10.72;4.33;;;32.60;85.80;;;;;;1815742;77;21553;-81
2022/05/24 07:32:45;;;;;;;12.18;4.47;;;32.90;85.50;;;;;;1817750;77;21131;-78
2022/05/24 07:35:17;;;;;;;12.63;4.65;;;32.70;85.70;;;;;;1769224;79;21227;-79
2022/05/24 07:37:48;;;;;;;8.75;4.65;;;33.00;86.40;;;;;;1780407;79;21108;-79
2022/05/24 07:48:01;;;;;;;12.93;4.75;;;32.90;83.80;;;;;;1850559;76;21183;-77
2022/05/24 07:50:32;;;;;;;13.53;4.45;;;32.80;84.50;;;;;;1854835;76;21627;-81
2022/05/24 07:53:03;;;;;;;13.43;4.97;;;32.70;83.80;;;;;;1849443;76;21208;-78
2022/05/24 07:55:34;;;;;;;11.18;4.70;;;32.90;84.00;;;;;;1847710;76;21162;-78
2022/05/24 07:58:06;;;;;;;10.43;4.28;;;32.80;82.30;;;;;;1849570;76;21191;-78
2022/05/24 08:00:38;;;;;;;13.15;5.03;;;32.70;83.30;;;;;;1851625;76;21196;-77
2022/05/24 08:03:10;;;;;;;13.28;4.53;;;32.90;83.90;;;;;;1840171;76;21115;-78
2022/05/24 08:05:41;;;;;;;14.73;5.15;;;32.90;84.50;;;;;;1859044;76;21198;-77
2022/05/24 08:08:14;;;;;;;10.60;4.08;;;32.60;85.70;;;;;;1855977;76;21592;-79
2022/05/24 08:10:45;;;;;;;15.35;4.47;;;32.90;86.60;;;;;;1851968;75;21149;-82
2022/05/24 08:13:19;;;;;;;11.50;4.47;;;32.60;86.70;;;;;;1852714;76;21613;-80
2022/05/24 08:15:51;;;;;;;9.75;4.40;;;32.70;85.00;;;;;;1848007;76;21246;-81
2022/05/24 08:18:24;;;;;;;10.68;4.58;;;32.70;84.30;;;;;;1789038;79;21225;-78
2022/05/24 08:20:56;;;;;;;10.15;4.47;;;32.70;84.30;;;;;;1787148;78;21210;-81
2022/05/24 08:23:28;;;;;;;9.43;4.50;;;32.80;84.20;;;;;;1789584;78;21583;-80
2022/05/24 08:26:00;;;;;;;11.25;5.12;;;32.80;83.00;;;;;;1797423;78;21127;-83
2022/05/24 08:28:33;;;;;;;10.88;4.30;;;33.00;84.00;;;;;;1790859;78;21800;-77
2022/05/24 08:31:05;;;;;;;9.88;4.28;;;32.80;83.70;;;;;;1833526;77;21100;-78
2022/05/24 08:33:37;;;;;;;11.57;4.90;;;33.10;83.80;;;;;;1824600;77;21127;-78
2022/05/24 08:36:08;;;;;;;9.88;4.50;;;33.00;83.90;;;;;;1830779;77;21182;-77
2022/05/24 08:38:41;;;;;;;11.88;3.92;;;33.00;84.40;;;;;;1820406;77;21659;-77
2022/05/24 08:41:14;;;;;;;8.78;3.70;;;33.00;83.50;;;;;;1811065;77;21344;-78
2022/05/24 08:43:46;;;;;;;11.97;3.85;;;32.90;82.90;;;;;;1830517;77;21220;-78
2022/05/24 08:48:57;;;;;;;8.95;3.80;;;33.00;83.70;;;;;;1836038;77;21176;-77
2022/05/24 08:51:29;;;;;;;6.50;3.30;;;33.00;83.00;;;;;;1835346;77;21734;-79
2022/05/24 08:54:03;;;;;;;10.43;3.83;;;32.90;83.20;;;;;;1828380;77;21298;-78
2022/05/24 08:56:37;;;;;;;8.85;4.08;;;33.00;83.10;;;;;;1794918;78;21648;-77
2022/05/24 08:59:10;;;;;;;9.95;3.45;;;32.90;82.80;;;;;;1793342;78;21095;-75
2022/05/24 09:01:44;;;;;;;9.30;3.50;;;32.90;82.50;;;;;;1823085;77;21645;-78
2022/05/24 09:04:16;;;;;;;11.53;4.55;;;33.00;84.10;;;;;;1821714;77;21209;-78
2022/05/24 09:06:51;;;;;;;11.75;4.42;;;32.80;83.40;;;;;;1834274;77;21145;-81
2022/05/24 09:09:26;;;;;;;12.80;4.40;;;32.80;83.60;;;;;;1823077;77;21226;-78
2022/05/24 09:12:00;;;;;;;12.07;4.67;;;32.80;81.90;;;;;;1804417;78;21612;-76
2022/05/24 09:14:32;;;;;;;7.50;4.17;;;32.90;80.70;;;;;;1829938;77;21169;-79
2022/05/24 09:17:10;;;;;;;8.53;3.98;;;32.80;80.50;;;;;;1835191;77;21151;-76
2022/05/24 09:19:42;;;;;;;;;;;32.90;82.30;;;;;;1813852;77;21170;-78
2022/05/24 09:22:16;;;;;;;12.70;4.45;;;32.80;82.30;;;;;;1816831;77;20482;-77
2022/05/24 09:24:49;;;;;;;10.38;4.12;;;32.80;81.60;;;;;;1787972;78;21100;-78
2022/05/24 09:27:23;;;;;;;8.53;3.37;;;32.80;79.70;;;;;;1819250;77;21626;-77
2022/05/24 09:29:58;;;;;;;12.15;3.62;;;32.90;80.70;;;;;;1821909;77;21170;-79
2022/05/24 09:32:32;;;;;;;11.33;3.67;;;32.90;80.20;;;;;;1825037;76;21141;-78
2022/05/24 09:35:05;;;;;;;10.72;3.67;;;33.00;80.60;;;;;;1812105;77;21166;-76
2022/05/24 09:37:37;;;;;;;8.83;3.90;;;32.80;80.70;;;;;;1822119;77;21107;-76
2022/05/24 09:40:11;;;;;;;7.80;3.70;;;32.70;80.60;;;;;;1845745;76;21151;-77
2022/05/24 09:42:42;;;;;;;6.90;3.77;;;32.70;81.40;;;;;;1851517;76;21196;-78
2022/05/24 09:45:17;;;;;;;9.03;3.95;;;32.90;82.10;;;;;;1846645;76;21189;-80
2022/05/24 09:47:46;;;;;;;10.00;4.10;;;32.70;82.40;;;;;;1852417;76;21081;-76
2022/05/24 09:50:19;;;;;;;8.45;3.77;;;32.70;82.90;;;;;;1853452;76;21167;-76
2022/05/24 09:52:52;;;;;;;8.90;3.90;;;32.60;82.90;;;;;;1865224;74;21155;-77
2022/05/24 09:55:24;;;;;;;10.00;4.15;;;32.40;84.00;;;;;;1855798;75;21100;-77
2022/05/24 09:57:55;;;;;;;8.15;3.83;;;32.70;83.50;;;;;;1854673;76;21164;-77
2022/05/24 10:00:26;;;;;;;8.93;4.00;;;32.40;83.30;;;;;;1827887;77;21215;-75
2022/05/24 10:02:59;;;;;;;12.98;3.98;;;32.40;83.70;;;;;;1784228;78;21155;-76
2022/05/24 10:05:31;;;;;;;7.35;4.20;;;32.40;84.00;;;;;;1832145;77;21139;-77
2022/05/24 10:08:05;;;;;;;7.87;3.50;;;32.30;83.70;;;;;;1822365;77;21173;-77
2022/05/24 10:10:38;;;;;;;9.20;3.75;;;32.30;83.90;;;;;;1816673;77;21261;-77
2022/05/24 10:13:11;;;;;;;9.95;3.80;;;32.40;84.10;;;;;;1858985;76;21061;-85
2022/05/24 10:15:46;;;;;;;11.33;4.20;;;32.40;84.50;;;;;;1820175;76;21086;-88
2022/05/24 10:18:20;;;;;;;10.48;3.90;;;32.10;84.40;;;;;;1812511;77;21171;-87
2022/05/24 10:20:53;;;;;;;9.40;4.08;;;32.20;84.60;;;;;;1853261;76;21222;-88
2022/05/24 10:23:28;;;;;;;8.65;3.95;;;32.30;85.40;;;;;;1859515;76;21260;-88
2022/05/24 10:26:03;;;;;;;12.07;4.43;;;32.20;84.80;;;;;;1871544;73;21122;-89
2022/05/24 10:28:38;;;;;;;9.43;4.90;;;32.30;84.70;;;;;;1880274;76;21103;-88
2022/05/24 10:31:10;;;;;;;10.10;4.67;;;32.40;85.40;;;;;;1871484;76;21178;-90
2022/05/24 10:39:04;;;;;;;11.97;6.87;;;32.00;86.40;;;;;;1855943;76;21178;-90
2022/05/24 10:41:37;;;;;;;13.10;7.97;;;32.00;86.70;;;;;;1865394;76;21219;-87
2022/05/24 10:44:13;;;;;;;15.38;7.97;;;32.00;86.80;;;;;;1877174;76;21181;-87
2022/05/24 10:46:49;;;;;;;21.75;8.48;;;32.20;87.40;;;;;;1860467;76;21131;-86
2022/05/24 10:49:22;;;;;;;14.38;7.03;;;32.20;87.10;;;;;;1883129;73;21139;-88
2022/05/24 10:51:56;;;;;;;14.07;7.00;;;32.00;87.00;;;;;;1868616;76;21111;-89
2022/05/24 10:54:32;;;;;;;13.32;6.15;;;32.20;87.20;;;;;;1868518;76;21232;-89
2022/05/24 10:57:05;;;;;;;13.80;5.78;;;31.90;87.50;;;;;;1859913;76;21105;-90
2022/05/24 10:59:42;;;;;;;10.90;6.17;;;32.00;87.40;;;;;;1856614;75;21156;-89
2022/05/24 11:02:23;;;;;;;11.70;5.60;;;32.10;87.90;;;;;;1861437;76;21177;-90
2022/05/24 11:04:56;;;;;;;11.60;5.78;;;32.10;87.30;;;;;;1860832;76;21222;-89
2022/05/24 11:07:29;;;;;;;11.18;5.72;;;32.10;87.40;;;;;;1850405;76;21210;-91
2022/05/24 11:10:05;;;;;;;13.53;6.40;;;31.90;87.70;;;;;;1880644;76;21587;-91
2022/05/24 11:12:41;;;;;;;11.95;6.30;;;31.90;87.90;;;;;;1860566;76;21067;-91
2022/05/24 11:15:12;;;;;;;;;;;31.80;88.10;;;;;;1855530;74;21157;-89
2022/05/24 11:17:47;;;;;;;15.35;6.97;;;31.80;88.50;;;;;;1873287;76;20252;-90
2022/05/24 11:20:20;;;;;;;14.05;6.25;;;31.70;88.50;;;;;;1850231;76;21134;-90
2022/05/24 11:22:57;;;;;;;9.55;5.62;;;31.70;88.50;;;;;;1862132;76;21153;-89
2022/05/24 11:25:30;;;;;;;13.78;5.37;;;31.90;88.30;;;;;;1864868;76;21151;-87
2022/05/24 11:28:05;;;;;;;13.83;5.42;;;31.90;88.30;;;;;;1862475;75;21140;-88
2022/05/24 11:30:37;;;;;;;11.93;4.97;;;31.70;88.20;;;;;;1878333;76;21096;-87
2022/05/24 11:33:11;;;;;;;10.20;4.28;;;31.60;88.20;;;;;;1853297;76;21115;-88
2022/05/24 11:35:45;;;;;;;10.95;4.80;;;31.70;88.20;;;;;;1842012;77;21158;-90
2022/05/24 11:38:24;;;;;;;;;;;31.70;87.90;;;;;;1843546;77;21202;-90
2022/05/24 11:40:54;;;;;;;6.75;3.87;;;31.70;89.20;;;;;;1843220;76;20170;-89
2022/05/24 11:43:35;;;;;;;8.30;3.87;;;31.60;88.00;;;;;;1808807;76;21139;-86
2022/05/24 11:46:08;;;;;;;17.75;4.37;;;31.70;88.10;;;;;;1817454;75;21127;-88
2022/05/24 11:49:03;;;;;;;10.72;4.08;;;31.60;88.00;;;;;;1801334;75;21188;-88
2022/05/24 11:51:43;;;;;;;10.23;4.00;;;31.50;87.90;;;;;;1703717;80;21546;-90
2022/05/24 11:54:18;;;;;;;9.10;4.60;;;31.50;88.10;;;;;;1833732;75;21219;-88
2022/05/24 11:57:00;;;;;;;12.13;5.03;;;31.60;88.10;;;;;;1859188;76;21139;-88
2022/05/24 11:59:35;;;;;;;9.25;4.53;;;31.50;88.20;;;;;;1856004;76;21595;-92
2022/05/24 12:02:14;;;;;;;8.50;4.47;;;31.40;88.20;;;;;;1856686;75;21229;-90
2022/05/24 12:10:05;;;;;;;11.27;5.20;;;31.40;88.90;;;;;;1757004;80;21214;-91
2022/05/24 12:12:37;;;;;;;10.28;5.22;;;31.40;88.90;;;;;;1796113;78;21679;-89
2022/05/24 12:15:11;;;;;;;14.38;5.78;;;31.40;89.00;;;;;;1788609;78;21694;-89
2022/05/24 12:17:53;;;;;;;12.03;4.60;;;31.40;89.00;;;;;;1802055;78;21159;-90
2022/05/24 12:20:29;;;;;;;10.65;5.08;;;31.50;89.20;;;;;;1798040;78;21186;-88
2022/05/24 12:23:05;;;;;;;7.97;4.78;;;31.40;89.30;;;;;;1792113;77;21255;-88
2022/05/24 12:25:39;;;;;;;9.48;4.67;;;31.60;89.40;;;;;;1782766;78;21273;-88
2022/05/24 12:28:15;;;;;;;10.10;4.72;;;31.30;89.10;;;;;;1791596;78;21377;-88
2022/05/24 12:30:51;;;;;;;11.22;4.83;;;31.40;89.30;;;;;;1791861;78;21120;-90
2022/05/24 12:33:24;;;;;;;8.78;4.95;;;31.40;89.20;;;;;;1757360;80;21163;-87
2022/05/24 12:36:00;;;;;;;9.93;4.78;;;31.30;89.30;;;;;;1791885;78;21319;-89
2022/05/24 12:38:41;;;;;;;8.48;4.53;;;31.50;89.40;;;;;;1792968;78;21714;-90
2022/05/24 12:41:17;;;;;;;12.00;5.00;;;31.40;89.50;;;;;;1831569;75;21083;-90
2022/05/24 12:43:56;;;;;;;9.70;5.10;;;31.20;89.50;;;;;;1846616;75;21238;-87
2022/05/24 12:46:38;;;;;;;;;;;31.30;89.50;;;;;;1852175;76;21134;-89
2022/05/24 12:49:12;;;;;;;13.10;5.35;;;31.30;89.90;;;;;;1846821;76;20484;-90
2022/05/24 12:51:56;;;;;;;12.13;5.85;;;31.20;89.60;;;;;;1855050;75;21159;-88
2022/05/24 12:54:37;;;;;;;11.68;5.55;;;31.20;89.10;;;;;;1844812;76;21136;-86
2022/05/24 12:57:11;;;;;;;12.43;5.95;;;31.20;89.00;;;;;;1846805;76;21418;-88
2022/05/24 12:59:48;;;;;;;8.68;5.25;;;31.20;89.10;;;;;;1849602;76;21084;-88
2022/05/24 13:02:21;;;;;;;11.65;6.00;;;31.00;89.10;;;;;;1852920;76;21157;-88
2022/05/24 13:04:57;;;;;;;10.40;5.33;;;31.10;89.00;;;;;;1873342;74;21086;-89
2022/05/24 13:07:31;;;;;;;13.25;6.30;;;31.30;89.50;;;;;;1844728;76;21046;-89
2022/05/24 13:10:03;;;;;;;11.60;6.10;;;31.20;89.50;;;;;;1835801;76;21094;-89
2022/05/24 13:12:35;;;;;;;16.93;7.10;;;31.10;89.50;;;;;;1861715;75;21124;-87
2022/05/24 13:15:21;;;;;;;14.05;7.22;;;31.00;89.40;;;;;;1872918;75;21152;-88
2022/05/24 13:17:44;;;;;;;12.58;6.47;;;30.90;89.40;;;;;;1862266;75;21199;-88
2022/05/24 13:20:19;;;;;;;13.53;6.42;;;31.00;89.80;;;;;;1849012;76;21597;-87
2022/05/24 13:22:54;;;;;;;16.87;6.70;;;31.10;90.00;;;;;;1872432;75;21166;-87
2022/05/24 13:25:27;;;;;;;12.40;7.87;;;30.90;89.70;;;;;;1864385;76;21135;-88
2022/05/24 13:28:03;;;;;;;10.08;5.75;;;30.90;90.30;;;;;;1851770;76;21186;-86
2022/05/24 13:35:43;;;;;;;10.98;5.83;;;31.10;91.10;;;;;;1847380;75;21194;-86
2022/05/24 13:38:16;;;;;;;11.38;5.95;;;31.00;91.50;;;;;;1869353;76;21186;-88
2022/05/24 13:40:49;;;;;;;13.13;6.20;;;30.80;91.80;;;;;;1860212;75;21088;-89
2022/05/24 13:43:23;;;;;;;14.83;6.40;;;30.70;92.20;;;;;;1821649;77;21202;-89
2022/05/24 13:45:58;;;;;;;15.20;6.75;;;30.60;92.40;;;;;;1834856;75;21092;-89
2022/05/24 13:48:34;;;;;;;13.55;6.28;;;30.60;92.90;;;;;;1789648;78;21087;-89
2022/05/24 13:51:12;;;;;;;13.18;6.53;;;30.60;93.00;;;;;;1825135;77;21087;-88
2022/05/24 13:53:46;;;;;;;13.85;7.00;;;30.60;93.30;;;;;;1867656;75;21106;-86
2022/05/24 13:56:22;;;;;;;10.35;5.85;;;30.40;93.50;;;;;;1848823;76;21058;-87
2022/05/24 13:58:56;;;;;;;12.65;6.00;;;30.60;93.90;;;;;;1847962;76;21221;-88